sensor_id;sensor_type;location;lat;lon;timestamp;temperature;humidity
3794;DHT22;1912;51.358;12.282;2022-08-07T00:01:07;15.20;1.00
3794;DHT22;1912;51.358;12.282;2022-08-07T00:03:33;15.10;1.00
3794;DHT22;1912;51.358;12.282;2022-08-07T00:05:59;15.10;1.00
3794;DHT22;1912;51.358;12.282;2022-08-07T00:08:25;15.00;1.00
3794;DHT22;1912;51.358;12.282;2022-08-07T00:10:51;14.90;1.00
3794;DHT22;1912;51.358;12.282;2022-08-07T00:13:18;14.90;1.00
3794;DHT22;1912;51.358;12.282;2022-08-07T00:15:46;15.00;1.00
3794;DHT22;1912;51.358;12.282;2022-08-07T00:18:19;15.00;1.00
3794;DHT22;1912;51.358;12.282;2022-08-07T00:20:46;14.80;1.00
3794;DHT22;1912;51.358;12.282;2022-08-07T00:23:13;14.80;1.00
3794;DHT22;1912;51.358;12.282;2022-08-07T00:25:39;14.80;1.00
3794;DHT22;1912;51.358;12.282;2022-08-07T00:28:05;14.80;1.00
3794;DHT22;1912;51.358;12.282;2022-08-07T00:30:30;14.80;1.00
3794;DHT22;1912;51.358;12.282;2022-08-07T00:32:57;14.80;1.00
3794;DHT22;1912;51.358;12.282;2022-08-07T00:35:24;14.80;1.00
3794;DHT22;1912;51.358;12.282;2022-08-07T00:37:51;14.80;1.00
3794;DHT22;1912;51.358;12.282;2022-08-07T00:40:17;14.80;1.00
3794;DHT22;1912;51.358;12.282;2022-08-07T00:42:42;14.60;1.00
3794;DHT22;1912;51.358;12.282;2022-08-07T00:45:09;14.40;1.00
3794;DHT22;1912;51.358;12.282;2022-08-07T00:47:36;14.30;1.00
3794;DHT22;1912;51.358;12.282;2022-08-07T00:50:03;14.20;1.00
3794;DHT22;1912;51.358;12.282;2022-08-07T00:52:30;14.30;1.00
3794;DHT22;1912;51.358;12.282;2022-08-07T00:54:55;14.30;1.00
3794;DHT22;1912;51.358;12.282;2022-08-07T00:57:23;14.30;1.00
3794;DHT22;1912;51.358;12.282;2022-08-07T00:59:49;14.30;1.00
3794;DHT22;1912;51.358;12.282;2022-08-07T01:02:16;14.40;1.00
3794;DHT22;1912;51.358;12.282;2022-08-07T01:04:41;14.30;1.00
3794;DHT22;1912;51.358;12.282;2022-08-07T01:07:07;14.30;1.00
3794;DHT22;1912;51.358;12.282;2022-08-07T01:09:33;14.30;1.00
3794;DHT22;1912;51.358;12.282;2022-08-07T01:11:59;14.30;1.00
3794;DHT22;1912;51.358;12.282;2022-08-07T01:14:26;14.40;1.00
3794;DHT22;1912;51.358;12.282;2022-08-07T01:16:52;14.30;1.00
3794;DHT22;1912;51.358;12.282;2022-08-07T01:19:20;14.20;1.00
3794;DHT22;1912;51.358;12.282;2022-08-07T01:21:48;14.10;1.00
3794;DHT22;1912;51.358;12.282;2022-08-07T01:24:16;14.10;1.00
3794;DHT22;1912;51.358;12.282;2022-08-07T01:26:43;14.00;1.00
3794;DHT22;1912;51.358;12.282;2022-08-07T01:29:09;14.00;1.00
3794;DHT22;1912;51.358;12.282;2022-08-07T01:31:38;13.90;1.00
3794;DHT22;1912;51.358;12.282;2022-08-07T01:34:04;13.80;1.00
3794;DHT22;1912;51.358;12.282;2022-08-07T01:36:33;13.80;1.00
3794;DHT22;1912;51.358;12.282;2022-08-07T01:38:59;13.80;1.00
3794;DHT22;1912;51.358;12.282;2022-08-07T01:41:24;13.80;1.00
3794;DHT22;1912;51.358;12.282;2022-08-07T01:43:51;13.80;1.00
3794;DHT22;1912;51.358;12.282;2022-08-07T01:46:18;13.80;1.00
3794;DHT22;1912;51.358;12.282;2022-08-07T01:48:46;13.80;1.00
3794;DHT22;1912;51.358;12.282;2022-08-07T01:51:17;13.80;1.00
3794;DHT22;1912;51.358;12.282;2022-08-07T01:53:47;13.80;1.00
3794;DHT22;1912;51.358;12.282;2022-08-07T01:56:42;13.80;1.00
3794;DHT22;1912;51.358;12.282;2022-08-07T01:59:25;13.80;1.00
3794;DHT22;1912;51.358;12.282;2022-08-07T02:01:58;13.80;1.00
3794;DHT22;1912;51.358;12.282;2022-08-07T02:04:55;13.80;1.00
3794;DHT22;1912;51.358;12.282;2022-08-07T02:07:28;13.60;1.00
3794;DHT22;1912;51.358;12.282;2022-08-07T02:09:57;13.40;1.00
3794;DHT22;1912;51.358;12.282;2022-08-07T02:12:25;13.30;1.00
3794;DHT22;1912;51.358;12.282;2022-08-07T02:14:55;13.30;1.00
3794;DHT22;1912;51.358;12.282;2022-08-07T02:17:22;13.40;1.00
3794;DHT22;1912;51.358;12.282;2022-08-07T02:19:49;13.30;1.00
3794;DHT22;1912;51.358;12.282;2022-08-07T02:22:18;13.30;1.00
3794;DHT22;1912;51.358;12.282;2022-08-07T02:24:45;13.40;1.00
3794;DHT22;1912;51.358;12.282;2022-08-07T02:27:15;13.30;1.00
3794;DHT22;1912;51.358;12.282;2022-08-07T02:29:42;13.40;1.00
3794;DHT22;1912;51.358;12.282;2022-08-07T02:32:09;13.30;1.00
3794;DHT22;1912;51.358;12.282;2022-08-07T02:34:37;13.10;1.00
3794;DHT22;1912;51.358;12.282;2022-08-07T02:37:04;13.00;1.00
3794;DHT22;1912;51.358;12.282;2022-08-07T02:39:34;12.90;1.00
3794;DHT22;1912;51.358;12.282;2022-08-07T02:42:01;12.90;1.00
3794;DHT22;1912;51.358;12.282;2022-08-07T02:44:28;12.80;1.00
3794;DHT22;1912;51.358;12.282;2022-08-07T02:46:57;12.80;1.00
3794;DHT22;1912;51.358;12.282;2022-08-07T02:49:24;12.70;1.00
3794;DHT22;1912;51.358;12.282;2022-08-07T02:51:51;12.70;1.00
3794;DHT22;1912;51.358;12.282;2022-08-07T02:54:22;12.60;1.00
3794;DHT22;1912;51.358;12.282;2022-08-07T02:56:51;12.50;1.00
3794;DHT22;1912;51.358;12.282;2022-08-07T02:59:20;12.60;1.00
3794;DHT22;1912;51.358;12.282;2022-08-07T03:01:50;12.50;1.00
3794;DHT22;1912;51.358;12.282;2022-08-07T03:04:17;12.40;1.00
3794;DHT22;1912;51.358;12.282;2022-08-07T03:06:43;12.40;1.00
3794;DHT22;1912;51.358;12.282;2022-08-07T03:09:11;12.40;1.00
3794;DHT22;1912;51.358;12.282;2022-08-07T03:11:38;12.50;1.00
3794;DHT22;1912;51.358;12.282;2022-08-07T03:14:04;12.50;1.00
3794;DHT22;1912;51.358;12.282;2022-08-07T03:16:30;12.50;1.00
3794;DHT22;1912;51.358;12.282;2022-08-07T03:19:00;12.40;1.00
3794;DHT22;1912;51.358;12.282;2022-08-07T03:21:26;12.40;1.00
3794;DHT22;1912;51.358;12.282;2022-08-07T03:23:56;12.50;1.00
3794;DHT22;1912;51.358;12.282;2022-08-07T03:26:26;12.50;1.00
3794;DHT22;1912;51.358;12.282;2022-08-07T03:28:57;12.70;1.00
3794;DHT22;1912;51.358;12.282;2022-08-07T03:31:26;12.60;1.00
3794;DHT22;1912;51.358;12.282;2022-08-07T03:33:55;12.60;1.00
3794;DHT22;1912;51.358;12.282;2022-08-07T03:36:24;12.60;1.00
3794;DHT22;1912;51.358;12.282;2022-08-07T03:38:53;12.50;1.00
3794;DHT22;1912;51.358;12.282;2022-08-07T03:41:21;12.40;1.00
3794;DHT22;1912;51.358;12.282;2022-08-07T03:43:47;12.30;1.00
3794;DHT22;1912;51.358;12.282;2022-08-07T03:46:13;12.30;1.00
3794;DHT22;1912;51.358;12.282;2022-08-07T03:48:40;12.40;1.00
3794;DHT22;1912;51.358;12.282;2022-08-07T03:51:07;12.30;1.00
3794;DHT22;1912;51.358;12.282;2022-08-07T03:53:33;12.50;1.00
3794;DHT22;1912;51.358;12.282;2022-08-07T03:56:00;12.40;1.00
3794;DHT22;1912;51.358;12.282;2022-08-07T03:58:27;12.40;1.00
3794;DHT22;1912;51.358;12.282;2022-08-07T04:00:55;12.40;1.00
3794;DHT22;1912;51.358;12.282;2022-08-07T04:03:22;12.40;1.00
3794;DHT22;1912;51.358;12.282;2022-08-07T04:05:48;12.40;1.00
3794;DHT22;1912;51.358;12.282;2022-08-07T04:08:14;12.40;1.00
3794;DHT22;1912;51.358;12.282;2022-08-07T04:10:41;12.40;1.00
3794;DHT22;1912;51.358;12.282;2022-08-07T04:13:11;12.40;1.00
3794;DHT22;1912;51.358;12.282;2022-08-07T04:15:38;12.50;1.00
3794;DHT22;1912;51.358;12.282;2022-08-07T04:18:04;12.40;1.00
3794;DHT22;1912;51.358;12.282;2022-08-07T04:20:30;12.40;1.00
3794;DHT22;1912;51.358;12.282;2022-08-07T04:22:56;12.50;1.00
3794;DHT22;1912;51.358;12.282;2022-08-07T04:25:23;12.40;1.00
3794;DHT22;1912;51.358;12.282;2022-08-07T04:27:50;12.30;1.00
3794;DHT22;1912;51.358;12.282;2022-08-07T04:30:16;12.20;1.00
3794;DHT22;1912;51.358;12.282;2022-08-07T04:32:43;12.20;1.00
3794;DHT22;1912;51.358;12.282;2022-08-07T04:35:09;12.20;1.00
3794;DHT22;1912;51.358;12.282;2022-08-07T04:37:35;12.20;1.00
3794;DHT22;1912;51.358;12.282;2022-08-07T04:40:02;12.20;1.00
3794;DHT22;1912;51.358;12.282;2022-08-07T04:42:28;12.20;1.00
3794;DHT22;1912;51.358;12.282;2022-08-07T04:44:57;12.20;1.00
3794;DHT22;1912;51.358;12.282;2022-08-07T04:47:49;12.20;1.00
3794;DHT22;1912;51.358;12.282;2022-08-07T04:53:15;12.50;1.00
3794;DHT22;1912;51.358;12.282;2022-08-07T04:56:00;12.60;1.00
3794;DHT22;1912;51.358;12.282;2022-08-07T04:58:45;12.60;1.00
3794;DHT22;1912;51.358;12.282;2022-08-07T05:06:52;12.70;1.00
3794;DHT22;1912;51.358;12.282;2022-08-07T05:13:31;12.90;1.00
3794;DHT22;1912;51.358;12.282;2022-08-07T05:15:38;13.00;1.00
3794;DHT22;1912;51.358;12.282;2022-08-07T05:18:17;13.20;1.00
3794;DHT22;1912;51.358;12.282;2022-08-07T05:20:52;13.20;1.00
3794;DHT22;1912;51.358;12.282;2022-08-07T05:23:26;13.30;1.00
3794;DHT22;1912;51.358;12.282;2022-08-07T05:25:59;13.40;1.00
3794;DHT22;1912;51.358;12.282;2022-08-07T05:28:26;13.60;1.00
3794;DHT22;1912;51.358;12.282;2022-08-07T05:30:54;13.90;1.00
3794;DHT22;1912;51.358;12.282;2022-08-07T05:33:21;14.40;1.00
3794;DHT22;1912;51.358;12.282;2022-08-07T05:35:51;15.30;1.00
3794;DHT22;1912;51.358;12.282;2022-08-07T05:38:19;15.70;1.00
3794;DHT22;1912;51.358;12.282;2022-08-07T05:40:49;15.70;1.00
3794;DHT22;1912;51.358;12.282;2022-08-07T05:43:16;16.20;1.00
3794;DHT22;1912;51.358;12.282;2022-08-07T05:45:42;16.70;1.00
3794;DHT22;1912;51.358;12.282;2022-08-07T05:48:08;17.20;1.00
3794;DHT22;1912;51.358;12.282;2022-08-07T05:50:34;17.60;1.00
3794;DHT22;1912;51.358;12.282;2022-08-07T05:53:01;18.20;1.00
3794;DHT22;1912;51.358;12.282;2022-08-07T05:55:28;18.70;1.00
3794;DHT22;1912;51.358;12.282;2022-08-07T05:57:55;19.10;1.00
3794;DHT22;1912;51.358;12.282;2022-08-07T06:00:23;19.30;1.00
3794;DHT22;1912;51.358;12.282;2022-08-07T06:02:50;19.50;1.00
3794;DHT22;1912;51.358;12.282;2022-08-07T06:05:19;19.80;1.00
3794;DHT22;1912;51.358;12.282;2022-08-07T06:07:47;20.10;1.00
3794;DHT22;1912;51.358;12.282;2022-08-07T06:10:13;20.50;1.00
3794;DHT22;1912;51.358;12.282;2022-08-07T06:12:39;20.80;1.00
3794;DHT22;1912;51.358;12.282;2022-08-07T06:15:07;20.70;1.00
3794;DHT22;1912;51.358;12.282;2022-08-07T06:17:34;21.00;1.00
3794;DHT22;1912;51.358;12.282;2022-08-07T06:20:00;21.10;1.00
3794;DHT22;1912;51.358;12.282;2022-08-07T06:22:28;21.10;1.00
3794;DHT22;1912;51.358;12.282;2022-08-07T06:24:59;20.90;1.00
3794;DHT22;1912;51.358;12.282;2022-08-07T06:27:24;21.10;1.00
3794;DHT22;1912;51.358;12.282;2022-08-07T06:29:51;21.10;1.00
3794;DHT22;1912;51.358;12.282;2022-08-07T06:32:17;21.00;1.00
3794;DHT22;1912;51.358;12.282;2022-08-07T06:34:43;21.00;1.00
3794;DHT22;1912;51.358;12.282;2022-08-07T06:37:08;21.10;1.00
3794;DHT22;1912;51.358;12.282;2022-08-07T06:39:34;21.20;1.00
3794;DHT22;1912;51.358;12.282;2022-08-07T06:42:16;21.40;1.00
3794;DHT22;1912;51.358;12.282;2022-08-07T06:44:55;21.50;1.00
3794;DHT22;1912;51.358;12.282;2022-08-07T06:47:21;21.40;1.00
3794;DHT22;1912;51.358;12.282;2022-08-07T06:49:47;21.20;1.00
3794;DHT22;1912;51.358;12.282;2022-08-07T06:52:14;21.10;1.00
3794;DHT22;1912;51.358;12.282;2022-08-07T06:54:42;21.30;1.00
3794;DHT22;1912;51.358;12.282;2022-08-07T06:57:10;21.10;1.00
3794;DHT22;1912;51.358;12.282;2022-08-07T06:59:39;21.00;1.00
3794;DHT22;1912;51.358;12.282;2022-08-07T07:02:08;21.00;1.00
3794;DHT22;1912;51.358;12.282;2022-08-07T07:04:42;21.10;1.00
3794;DHT22;1912;51.358;12.282;2022-08-07T07:07:09;21.20;1.00
3794;DHT22;1912;51.358;12.282;2022-08-07T07:09:35;21.40;1.00
3794;DHT22;1912;51.358;12.282;2022-08-07T07:14:43;21.40;1.00
3794;DHT22;1912;51.358;12.282;2022-08-07T07:17:21;21.50;1.00
3794;DHT22;1912;51.358;12.282;2022-08-07T07:19:54;22.10;1.00
3794;DHT22;1912;51.358;12.282;2022-08-07T07:22:22;22.40;1.00
3794;DHT22;1912;51.358;12.282;2022-08-07T07:24:49;22.80;1.00
3794;DHT22;1912;51.358;12.282;2022-08-07T07:27:16;22.80;1.00
3794;DHT22;1912;51.358;12.282;2022-08-07T07:29:48;23.00;1.00
3794;DHT22;1912;51.358;12.282;2022-08-07T07:32:17;23.30;1.00
3794;DHT22;1912;51.358;12.282;2022-08-07T07:34:47;23.30;1.00
3794;DHT22;1912;51.358;12.282;2022-08-07T07:37:14;23.60;1.00
3794;DHT22;1912;51.358;12.282;2022-08-07T07:39:41;24.00;1.00
3794;DHT22;1912;51.358;12.282;2022-08-07T07:42:12;24.10;1.00
3794;DHT22;1912;51.358;12.282;2022-08-07T07:44:43;24.20;1.00
3794;DHT22;1912;51.358;12.282;2022-08-07T07:47:11;24.20;1.00
3794;DHT22;1912;51.358;12.282;2022-08-07T07:49:39;24.00;1.00
3794;DHT22;1912;51.358;12.282;2022-08-07T07:52:07;24.50;1.00
3794;DHT22;1912;51.358;12.282;2022-08-07T07:54:34;24.80;1.00
3794;DHT22;1912;51.358;12.282;2022-08-07T07:57:01;25.00;1.00
3794;DHT22;1912;51.358;12.282;2022-08-07T07:59:29;25.30;1.00
3794;DHT22;1912;51.358;12.282;2022-08-07T08:01:55;25.40;1.00
3794;DHT22;1912;51.358;12.282;2022-08-07T08:04:25;25.40;1.00
3794;DHT22;1912;51.358;12.282;2022-08-07T08:06:52;25.50;1.00
3794;DHT22;1912;51.358;12.282;2022-08-07T08:09:21;25.70;1.00
3794;DHT22;1912;51.358;12.282;2022-08-07T08:11:50;25.90;1.00
3794;DHT22;1912;51.358;12.282;2022-08-07T08:14:16;26.10;1.00
3794;DHT22;1912;51.358;12.282;2022-08-07T08:16:44;26.30;1.00
3794;DHT22;1912;51.358;12.282;2022-08-07T08:19:14;26.60;1.00
3794;DHT22;1912;51.358;12.282;2022-08-07T08:21:44;27.10;1.00
3794;DHT22;1912;51.358;12.282;2022-08-07T08:24:35;27.30;1.00
3794;DHT22;1912;51.358;12.282;2022-08-07T08:27:21;27.60;1.00
3794;DHT22;1912;51.358;12.282;2022-08-07T08:29:57;27.70;1.00
3794;DHT22;1912;51.358;12.282;2022-08-07T08:32:31;27.70;1.00
3794;DHT22;1912;51.358;12.282;2022-08-07T08:34:58;27.90;1.00
3794;DHT22;1912;51.358;12.282;2022-08-07T08:37:30;27.80;1.00
3794;DHT22;1912;51.358;12.282;2022-08-07T08:39:57;27.80;1.00
3794;DHT22;1912;51.358;12.282;2022-08-07T08:42:28;27.90;1.00
3794;DHT22;1912;51.358;12.282;2022-08-07T08:45:20;28.10;1.00
3794;DHT22;1912;51.358;12.282;2022-08-07T08:54:01;28.10;1.00
3794;DHT22;1912;51.358;12.282;2022-08-07T08:56:43;28.70;1.00
3794;DHT22;1912;51.358;12.282;2022-08-07T08:59:19;29.10;1.00
3794;DHT22;1912;51.358;12.282;2022-08-07T09:04:49;29.60;1.00
3794;DHT22;1912;51.358;12.282;2022-08-07T09:10:44;29.50;1.00
3794;DHT22;1912;51.358;12.282;2022-08-07T09:13:34;29.70;1.00
3794;DHT22;1912;51.358;12.282;2022-08-07T09:16:20;30.00;1.00
3794;DHT22;1912;51.358;12.282;2022-08-07T09:22:02;30.50;1.00
3794;DHT22;1912;51.358;12.282;2022-08-07T09:30:03;30.50;1.00
3794;DHT22;1912;51.358;12.282;2022-08-07T09:35:44;31.10;1.00
3794;DHT22;1912;51.358;12.282;2022-08-07T09:38:23;31.10;1.00
3794;DHT22;1912;51.358;12.282;2022-08-07T09:40:59;30.70;1.00
3794;DHT22;1912;51.358;12.282;2022-08-07T09:43:33;30.40;1.00
3794;DHT22;1912;51.358;12.282;2022-08-07T09:52:40;29.50;1.00
3794;DHT22;1912;51.358;12.282;2022-08-07T09:55:15;27.60;1.00
3794;DHT22;1912;51.358;12.282;2022-08-07T10:06:47;30.60;1.00
3794;DHT22;1912;51.358;12.282;2022-08-07T10:15:40;30.50;1.00
3794;DHT22;1912;51.358;12.282;2022-08-07T10:18:35;30.80;1.00
3794;DHT22;1912;51.358;12.282;2022-08-07T10:21:38;31.20;1.00
3794;DHT22;1912;51.358;12.282;2022-08-07T10:30:35;31.40;1.00
3794;DHT22;1912;51.358;12.282;2022-08-07T10:36:34;32.10;1.00
3794;DHT22;1912;51.358;12.282;2022-08-07T10:39:10;32.70;1.00
3794;DHT22;1912;51.358;12.282;2022-08-07T10:41:59;33.10;1.00
3794;DHT22;1912;51.358;12.282;2022-08-07T10:44:51;32.60;1.00
3794;DHT22;1912;51.358;12.282;2022-08-07T10:47:46;32.50;1.00
3794;DHT22;1912;51.358;12.282;2022-08-07T10:50:21;32.80;1.00
3794;DHT22;1912;51.358;12.282;2022-08-07T10:52:52;31.80;1.00
3794;DHT22;1912;51.358;12.282;2022-08-07T10:55:30;32.50;1.00
3794;DHT22;1912;51.358;12.282;2022-08-07T10:58:38;32.50;1.00
3794;DHT22;1912;51.358;12.282;2022-08-07T11:01:57;32.00;1.00
3794;DHT22;1912;51.358;12.282;2022-08-07T11:09:59;32.50;1.00
3794;DHT22;1912;51.358;12.282;2022-08-07T11:12:37;32.40;1.00
3794;DHT22;1912;51.358;12.282;2022-08-07T11:15:10;33.00;1.00
3794;DHT22;1912;51.358;12.282;2022-08-07T11:23:43;34.00;1.00
3794;DHT22;1912;51.358;12.282;2022-08-07T11:26:34;33.30;1.00
3794;DHT22;1912;51.358;12.282;2022-08-07T11:29:28;33.00;1.00
3794;DHT22;1912;51.358;12.282;2022-08-07T11:32:22;33.20;1.00
3794;DHT22;1912;51.358;12.282;2022-08-07T11:35:08;33.60;1.00
3794;DHT22;1912;51.358;12.282;2022-08-07T11:52:35;34.50;99.90
3794;DHT22;1912;51.358;12.282;2022-08-07T11:55:32;34.40;1.00
3794;DHT22;1912;51.358;12.282;2022-08-07T11:59:12;33.70;1.00
3794;DHT22;1912;51.358;12.282;2022-08-07T12:13:39;34.10;1.00
3794;DHT22;1912;51.358;12.282;2022-08-07T12:22:27;35.30;99.90
3794;DHT22;1912;51.358;12.282;2022-08-07T12:25:19;35.20;99.90
3794;DHT22;1912;51.358;12.282;2022-08-07T12:28:13;34.20;99.90
3794;DHT22;1912;51.358;12.282;2022-08-07T12:30:43;33.90;1.00
3794;DHT22;1912;51.358;12.282;2022-08-07T12:33:13;33.70;1.00
3794;DHT22;1912;51.358;12.282;2022-08-07T12:35:44;34.00;99.90
3794;DHT22;1912;51.358;12.282;2022-08-07T12:38:13;33.50;1.00
3794;DHT22;1912;51.358;12.282;2022-08-07T12:40:41;33.40;1.00
3794;DHT22;1912;51.358;12.282;2022-08-07T12:43:09;34.30;99.90
3794;DHT22;1912;51.358;12.282;2022-08-07T12:46:03;34.60;1.00
3794;DHT22;1912;51.358;12.282;2022-08-07T12:49:12;34.50;99.90
3794;DHT22;1912;51.358;12.282;2022-08-07T12:52:00;34.80;99.90
3794;DHT22;1912;51.358;12.282;2022-08-07T12:54:39;34.60;99.90
3794;DHT22;1912;51.358;12.282;2022-08-07T12:57:09;34.80;99.90
3794;DHT22;1912;51.358;12.282;2022-08-07T12:59:36;34.80;99.90
3794;DHT22;1912;51.358;12.282;2022-08-07T13:02:22;35.00;99.90
3794;DHT22;1912;51.358;12.282;2022-08-07T13:11:13;34.30;99.90
3794;DHT22;1912;51.358;12.282;2022-08-07T13:14:14;34.30;99.90
3794;DHT22;1912;51.358;12.282;2022-08-07T13:17:05;34.30;99.90
3794;DHT22;1912;51.358;12.282;2022-08-07T13:19:38;34.40;99.90
3794;DHT22;1912;51.358;12.282;2022-08-07T13:26:00;34.70;99.90
3794;DHT22;1912;51.358;12.282;2022-08-07T13:28:38;34.70;99.90
3794;DHT22;1912;51.358;12.282;2022-08-07T13:31:20;34.40;99.90
3794;DHT22;1912;51.358;12.282;2022-08-07T13:33:57;32.80;1.00
3794;DHT22;1912;51.358;12.282;2022-08-07T13:36:40;33.20;1.00
3794;DHT22;1912;51.358;12.282;2022-08-07T13:39:34;32.70;1.00
3794;DHT22;1912;51.358;12.282;2022-08-07T13:42:02;33.80;1.00
3794;DHT22;1912;51.358;12.282;2022-08-07T13:44:36;32.80;1.00
3794;DHT22;1912;51.358;12.282;2022-08-07T13:47:04;32.90;1.00
3794;DHT22;1912;51.358;12.282;2022-08-07T13:49:34;32.30;1.00
3794;DHT22;1912;51.358;12.282;2022-08-07T13:52:07;32.40;1.00
3794;DHT22;1912;51.358;12.282;2022-08-07T13:54:34;33.30;1.00
3794;DHT22;1912;51.358;12.282;2022-08-07T13:57:02;34.20;99.90
3794;DHT22;1912;51.358;12.282;2022-08-07T13:59:34;34.10;1.00
3794;DHT22;1912;51.358;12.282;2022-08-07T14:02:05;33.90;1.00
3794;DHT22;1912;51.358;12.282;2022-08-07T14:04:54;34.20;99.90
3794;DHT22;1912;51.358;12.282;2022-08-07T14:07:25;34.30;99.90
3794;DHT22;1912;51.358;12.282;2022-08-07T14:09:54;34.50;99.90
3794;DHT22;1912;51.358;12.282;2022-08-07T14:12:49;34.10;99.90
3794;DHT22;1912;51.358;12.282;2022-08-07T14:15:36;33.40;1.00
3794;DHT22;1912;51.358;12.282;2022-08-07T14:18:17;33.00;1.00
3794;DHT22;1912;51.358;12.282;2022-08-07T14:20:48;33.20;1.00
3794;DHT22;1912;51.358;12.282;2022-08-07T14:23:19;32.90;1.00
3794;DHT22;1912;51.358;12.282;2022-08-07T14:25:54;32.00;1.00
3794;DHT22;1912;51.358;12.282;2022-08-07T14:28:25;32.10;1.00
3794;DHT22;1912;51.358;12.282;2022-08-07T14:30:53;32.20;1.00
3794;DHT22;1912;51.358;12.282;2022-08-07T14:33:20;32.10;1.00
3794;DHT22;1912;51.358;12.282;2022-08-07T14:35:47;32.60;1.00
3794;DHT22;1912;51.358;12.282;2022-08-07T14:38:14;32.60;1.00
3794;DHT22;1912;51.358;12.282;2022-08-07T14:40:41;32.90;1.00
3794;DHT22;1912;51.358;12.282;2022-08-07T14:43:11;33.00;1.00
3794;DHT22;1912;51.358;12.282;2022-08-07T14:45:41;32.30;1.00
3794;DHT22;1912;51.358;12.282;2022-08-07T14:48:09;33.30;1.00
3794;DHT22;1912;51.358;12.282;2022-08-07T14:50:41;33.60;1.00
3794;DHT22;1912;51.358;12.282;2022-08-07T14:53:09;33.90;99.90
3794;DHT22;1912;51.358;12.282;2022-08-07T14:55:36;33.90;1.00
3794;DHT22;1912;51.358;12.282;2022-08-07T14:58:06;33.10;1.00
3794;DHT22;1912;51.358;12.282;2022-08-07T15:00:34;32.80;1.00
3794;DHT22;1912;51.358;12.282;2022-08-07T15:03:05;33.00;1.00
3794;DHT22;1912;51.358;12.282;2022-08-07T15:05:32;32.80;1.00
3794;DHT22;1912;51.358;12.282;2022-08-07T15:08:03;32.70;1.00
3794;DHT22;1912;51.358;12.282;2022-08-07T15:10:31;33.00;1.00
3794;DHT22;1912;51.358;12.282;2022-08-07T15:13:07;32.90;1.00
3794;DHT22;1912;51.358;12.282;2022-08-07T15:15:38;33.70;99.90
3794;DHT22;1912;51.358;12.282;2022-08-07T15:18:12;33.20;1.00
3794;DHT22;1912;51.358;12.282;2022-08-07T15:20:40;33.10;1.00
3794;DHT22;1912;51.358;12.282;2022-08-07T15:23:11;32.90;1.00
3794;DHT22;1912;51.358;12.282;2022-08-07T15:25:45;33.10;1.00
3794;DHT22;1912;51.358;12.282;2022-08-07T15:28:15;33.20;1.00
3794;DHT22;1912;51.358;12.282;2022-08-07T15:30:44;33.20;1.00
3794;DHT22;1912;51.358;12.282;2022-08-07T15:33:16;33.00;1.00
3794;DHT22;1912;51.358;12.282;2022-08-07T15:35:51;32.90;1.00
3794;DHT22;1912;51.358;12.282;2022-08-07T15:38:23;32.70;1.00
3794;DHT22;1912;51.358;12.282;2022-08-07T15:40:51;32.00;1.00
3794;DHT22;1912;51.358;12.282;2022-08-07T15:43:22;32.30;1.00
3794;DHT22;1912;51.358;12.282;2022-08-07T15:45:50;32.40;1.00
3794;DHT22;1912;51.358;12.282;2022-08-07T15:48:28;31.90;1.00
3794;DHT22;1912;51.358;12.282;2022-08-07T15:50:59;31.90;1.00
3794;DHT22;1912;51.358;12.282;2022-08-07T15:53:44;32.20;1.00
3794;DHT22;1912;51.358;12.282;2022-08-07T15:56:12;32.50;1.00
3794;DHT22;1912;51.358;12.282;2022-08-07T15:58:53;32.10;1.00
3794;DHT22;1912;51.358;12.282;2022-08-07T16:01:29;32.10;1.00
3794;DHT22;1912;51.358;12.282;2022-08-07T16:04:00;32.50;1.00
3794;DHT22;1912;51.358;12.282;2022-08-07T16:06:34;32.50;1.00
3794;DHT22;1912;51.358;12.282;2022-08-07T16:09:12;32.40;1.00
3794;DHT22;1912;51.358;12.282;2022-08-07T16:18:17;32.40;1.00
3794;DHT22;1912;51.358;12.282;2022-08-07T16:34:26;32.00;1.00
3794;DHT22;1912;51.358;12.282;2022-08-07T16:37:20;32.10;1.00
3794;DHT22;1912;51.358;12.282;2022-08-07T16:40:03;32.30;1.00
3794;DHT22;1912;51.358;12.282;2022-08-07T16:42:54;31.80;1.00
3794;DHT22;1912;51.358;12.282;2022-08-07T17:00:14;32.80;1.00
3794;DHT22;1912;51.358;12.282;2022-08-07T17:06:18;32.50;1.00
3794;DHT22;1912;51.358;12.282;2022-08-07T17:08:58;32.40;1.00
3794;DHT22;1912;51.358;12.282;2022-08-07T17:12:03;32.40;1.00
3794;DHT22;1912;51.358;12.282;2022-08-07T17:17:41;31.10;1.00
3794;DHT22;1912;51.358;12.282;2022-08-07T17:31:39;29.40;1.00
3794;DHT22;1912;51.358;12.282;2022-08-07T17:34:27;29.10;1.00
3794;DHT22;1912;51.358;12.282;2022-08-07T17:39:57;28.80;1.00
3794;DHT22;1912;51.358;12.282;2022-08-07T17:45:08;28.50;1.00
3794;DHT22;1912;51.358;12.282;2022-08-07T17:47:42;28.40;1.00
3794;DHT22;1912;51.358;12.282;2022-08-07T17:50:30;28.20;1.00
3794;DHT22;1912;51.358;12.282;2022-08-07T17:56:06;28.00;1.00
3794;DHT22;1912;51.358;12.282;2022-08-07T17:58:48;27.70;1.00
3794;DHT22;1912;51.358;12.282;2022-08-07T18:04:36;27.60;1.00
3794;DHT22;1912;51.358;12.282;2022-08-07T18:07:20;27.50;1.00
3794;DHT22;1912;51.358;12.282;2022-08-07T18:10:06;27.50;1.00
3794;DHT22;1912;51.358;12.282;2022-08-07T18:15:56;27.20;1.00
3794;DHT22;1912;51.358;12.282;2022-08-07T18:18:27;27.20;1.00
3794;DHT22;1912;51.358;12.282;2022-08-07T18:21:10;27.10;1.00
3794;DHT22;1912;51.358;12.282;2022-08-07T18:23:52;26.90;1.00
3794;DHT22;1912;51.358;12.282;2022-08-07T18:35:03;26.40;1.00
3794;DHT22;1912;51.358;12.282;2022-08-07T18:41:02;26.40;1.00
3794;DHT22;1912;51.358;12.282;2022-08-07T18:44:03;26.20;1.00
3794;DHT22;1912;51.358;12.282;2022-08-07T18:46:55;26.10;1.00
3794;DHT22;1912;51.358;12.282;2022-08-07T18:52:33;25.80;1.00
3794;DHT22;1912;51.358;12.282;2022-08-07T18:55:14;25.70;1.00
3794;DHT22;1912;51.358;12.282;2022-08-07T19:01:02;25.20;1.00
3794;DHT22;1912;51.358;12.282;2022-08-07T19:03:59;25.10;1.00
3794;DHT22;1912;51.358;12.282;2022-08-07T19:06:48;25.00;1.00
3794;DHT22;1912;51.358;12.282;2022-08-07T19:12:24;25.00;1.00
3794;DHT22;1912;51.358;12.282;2022-08-07T19:15:22;24.90;1.00
3794;DHT22;1912;51.358;12.282;2022-08-07T19:18:05;24.70;1.00
3794;DHT22;1912;51.358;12.282;2022-08-07T19:20:58;24.50;1.00
3794;DHT22;1912;51.358;12.282;2022-08-07T19:23:41;24.40;1.00
3794;DHT22;1912;51.358;12.282;2022-08-07T19:26:11;24.00;1.00
3794;DHT22;1912;51.358;12.282;2022-08-07T19:28:42;23.70;1.00
3794;DHT22;1912;51.358;12.282;2022-08-07T19:31:32;23.50;1.00
3794;DHT22;1912;51.358;12.282;2022-08-07T19:34:02;23.40;1.00
3794;DHT22;1912;51.358;12.282;2022-08-07T19:36:29;23.40;1.00
3794;DHT22;1912;51.358;12.282;2022-08-07T19:39:05;23.40;1.00
3794;DHT22;1912;51.358;12.282;2022-08-07T19:41:44;23.30;1.00
3794;DHT22;1912;51.358;12.282;2022-08-07T19:44:15;23.00;1.00
3794;DHT22;1912;51.358;12.282;2022-08-07T19:46:46;23.00;1.00
3794;DHT22;1912;51.358;12.282;2022-08-07T19:49:21;23.10;1.00
3794;DHT22;1912;51.358;12.282;2022-08-07T19:51:49;23.00;1.00
3794;DHT22;1912;51.358;12.282;2022-08-07T19:54:20;22.90;1.00
3794;DHT22;1912;51.358;12.282;2022-08-07T19:56:49;22.70;1.00
3794;DHT22;1912;51.358;12.282;2022-08-07T19:59:28;22.60;1.00
3794;DHT22;1912;51.358;12.282;2022-08-07T20:02:00;22.50;1.00
3794;DHT22;1912;51.358;12.282;2022-08-07T20:04:37;22.40;1.00
3794;DHT22;1912;51.358;12.282;2022-08-07T20:07:08;22.20;1.00
3794;DHT22;1912;51.358;12.282;2022-08-07T20:09:47;22.10;1.00
3794;DHT22;1912;51.358;12.282;2022-08-07T20:12:18;22.00;1.00